Ramat Gan, Israel
Current Conditions -  °F | °C
As of 1:50 PM on Thursday 23 Oct 2014 (Local Time) from LLSD Reporting Station
Few Clouds Few Clouds  
Wind Chill: 81°   Ceiling: Unl
Heat Index: 82°   Visibility: 6mi
Dew Point: 63°   Wind: 13mph
Humidity: 54%   Direction: 240°WSW
Pressure: 29.97"   Gusts: NA
Location:  32.08°N, 34.8°E
Report Text: LLSD 231050Z 24011KT 200V270 9999 FEW040 27/17 Q1015
Loading
Personal Weather Stations






























Interactive Weather Map
Tropical Storm Tracking
New forecast layout! Learn more

10-Day Weather Forecast

Advertisements
Track Severe Weather on mobile